Aérodrome :
LOGIN :

S'inscrire | Disclaimer

   EN    FR    IT 

 










Légende :    VFR   VFR Marginal   IFR   IFR Intensif   IFR Très Intensif
Visi : 
Plafond : 
>= 8 km
>= 3000ft
5 à 8 km
1000 à 3000 ft
1500m à 5 km
500 à 1000 ft
800 à 1500m
200 à 500 ft
< 800m
< 200 ft
Symboles :   Orages  Brouillard  Fortes neiges  Fortes précipitations  Vent > 20 kt
SIGMETs :   Divers  Orages  Givrage  Turbulence  Onde Orograph.  Cendres Volcan.






- Altitude de l'aérodrome : 1504 ft
- Code IATA : PNA


LEPP - Noain Pamplona

DERNIER METAR :
  • 291000Z 00000KT 9999 SCT040 BKN050 06/05 Q1023

METARs EXPIRÉS :
  • 290930Z 00000KT 9999 SCT036 BKN050 06/04 Q1023
  • 290900Z 00000KT 9999 BKN036 06/04 Q1022
  • 290830Z VRB01KT 9999 BKN038 05/04 Q1022
  • 290800Z VRB01KT 9999 BKN038 04/04 Q1022
  • 290730Z 00000KT 9999 SCT028 SCT050 04/04 Q1022

TAF TAF LEPP
Valide du 29 à 09h jusqu'au 30 à 09h UTC


290800Z 2909/3009 VRB04KT 9999 SCT050 TX11/2915Z TN04/2909Z
TEMPO 2916/2922 RA



MET'MAP, la Météo Aéronautique d'un coup d'oeil ! - Copyright ORBIFLY Décembre 2007 - Disclaimer

ORBIFLY MET'MAP TEAM :

Programmation & Développement : Alexandra Zaïnal
Sur une idée originale de : Baudouin d'Aumeries
Assistance à la programmation : Marc-Olivier Méhu
Soutien technique & logistique : Manuel Goepfert

Contact : metmap@orbifly.com




SOURCES & CREDITS :

   NOAA